sensor_id;sensor_type;location;lat;lon;timestamp;pressure;altitude;pressure_sealevel;temperature
21210;BMP180;10762;42.206;25.326;2023-12-07T00:01:39;99151.00;;;10.70
21210;BMP180;10762;42.206;25.326;2023-12-07T00:04:08;99148.00;;;10.70
21210;BMP180;10762;42.206;25.326;2023-12-07T00:06:35;99146.00;;;10.70
21210;BMP180;10762;42.206;25.326;2023-12-07T00:09:04;99147.00;;;10.70
21210;BMP180;10762;42.206;25.326;2023-12-07T00:11:31;99155.00;;;10.70
21210;BMP180;10762;42.206;25.326;2023-12-07T00:13:58;99149.00;;;10.70
21210;BMP180;10762;42.206;25.326;2023-12-07T00:16:26;99147.00;;;10.70
21210;BMP180;10762;42.206;25.326;2023-12-07T00:18:55;99156.00;;;10.70
21210;BMP180;10762;42.206;25.326;2023-12-07T00:21:28;99145.00;;;10.70
21210;BMP180;10762;42.206;25.326;2023-12-07T00:23:55;99154.00;;;10.70
21210;BMP180;10762;42.206;25.326;2023-12-07T00:26:24;99158.00;;;10.70
21210;BMP180;10762;42.206;25.326;2023-12-07T00:28:50;99163.00;;;10.70
21210;BMP180;10762;42.206;25.326;2023-12-07T00:31:19;99160.00;;;10.70
21210;BMP180;10762;42.206;25.326;2023-12-07T00:33:50;99160.00;;;10.70
21210;BMP180;10762;42.206;25.326;2023-12-07T00:36:19;99159.00;;;10.70
21210;BMP180;10762;42.206;25.326;2023-12-07T00:38:47;99153.00;;;10.70
21210;BMP180;10762;42.206;25.326;2023-12-07T00:41:14;99153.00;;;10.60
21210;BMP180;10762;42.206;25.326;2023-12-07T00:43:42;99147.00;;;10.60
21210;BMP180;10762;42.206;25.326;2023-12-07T00:46:10;99144.00;;;10.50
21210;BMP180;10762;42.206;25.326;2023-12-07T00:48:37;99147.00;;;10.40
21210;BMP180;10762;42.206;25.326;2023-12-07T00:51:05;99135.00;;;10.40
21210;BMP180;10762;42.206;25.326;2023-12-07T00:53:34;99146.00;;;10.40
21210;BMP180;10762;42.206;25.326;2023-12-07T00:56:04;99149.00;;;10.40
21210;BMP180;10762;42.206;25.326;2023-12-07T00:58:30;99147.00;;;10.40
21210;BMP180;10762;42.206;25.326;2023-12-07T01:00:58;99146.00;;;10.30
21210;BMP180;10762;42.206;25.326;2023-12-07T01:03:28;99147.00;;;10.30
21210;BMP180;10762;42.206;25.326;2023-12-07T01:05:55;99147.00;;;10.30
21210;BMP180;10762;42.206;25.326;2023-12-07T01:08:22;99152.00;;;10.30
21210;BMP180;10762;42.206;25.326;2023-12-07T01:10:50;99142.00;;;10.30
21210;BMP180;10762;42.206;25.326;2023-12-07T01:13:18;99144.00;;;10.30
21210;BMP180;10762;42.206;25.326;2023-12-07T01:15:46;99136.00;;;10.30
21210;BMP180;10762;42.206;25.326;2023-12-07T01:18:15;99138.00;;;10.30
21210;BMP180;10762;42.206;25.326;2023-12-07T01:20:42;99135.00;;;10.30
21210;BMP180;10762;42.206;25.326;2023-12-07T01:23:10;99137.00;;;10.30
21210;BMP180;10762;42.206;25.326;2023-12-07T01:25:39;99139.00;;;10.30
21210;BMP180;10762;42.206;25.326;2023-12-07T01:28:07;99137.00;;;10.30
21210;BMP180;10762;42.206;25.326;2023-12-07T01:30:35;99141.00;;;10.30
21210;BMP180;10762;42.206;25.326;2023-12-07T01:33:03;99135.00;;;10.30
21210;BMP180;10762;42.206;25.326;2023-12-07T01:35:29;99127.00;;;10.30
21210;BMP180;10762;42.206;25.326;2023-12-07T01:37:58;99123.00;;;10.30
21210;BMP180;10762;42.206;25.326;2023-12-07T01:40:26;99132.00;;;10.30
21210;BMP180;10762;42.206;25.326;2023-12-07T01:42:55;99129.00;;;10.20
21210;BMP180;10762;42.206;25.326;2023-12-07T01:45:23;99132.00;;;10.30
21210;BMP180;10762;42.206;25.326;2023-12-07T01:47:51;99135.00;;;10.20
21210;BMP180;10762;42.206;25.326;2023-12-07T01:50:18;99127.00;;;10.10
21210;BMP180;10762;42.206;25.326;2023-12-07T01:52:50;99134.00;;;10.10
21210;BMP180;10762;42.206;25.326;2023-12-07T01:55:17;99139.00;;;10.00
21210;BMP180;10762;42.206;25.326;2023-12-07T01:57:44;99136.00;;;10.00
21210;BMP180;10762;42.206;25.326;2023-12-07T02:00:15;99125.00;;;10.00
21210;BMP180;10762;42.206;25.326;2023-12-07T02:02:44;99140.00;;;10.10
21210;BMP180;10762;42.206;25.326;2023-12-07T02:05:12;99129.00;;;10.10
21210;BMP180;10762;42.206;25.326;2023-12-07T02:07:40;99132.00;;;10.10
21210;BMP180;10762;42.206;25.326;2023-12-07T02:10:10;99147.00;;;10.00
21210;BMP180;10762;42.206;25.326;2023-12-07T02:12:40;99147.00;;;10.00
21210;BMP180;10762;42.206;25.326;2023-12-07T02:15:06;99144.00;;;10.00
21210;BMP180;10762;42.206;25.326;2023-12-07T02:20:13;99143.00;;;9.80
21210;BMP180;10762;42.206;25.326;2023-12-07T02:22:42;99139.00;;;9.90
21210;BMP180;10762;42.206;25.326;2023-12-07T02:25:09;99164.00;;;9.80
21210;BMP180;10762;42.206;25.326;2023-12-07T02:27:37;99139.00;;;9.80
21210;BMP180;10762;42.206;25.326;2023-12-07T02:30:04;99142.00;;;9.80
21210;BMP180;10762;42.206;25.326;2023-12-07T02:32:31;99139.00;;;9.80
21210;BMP180;10762;42.206;25.326;2023-12-07T02:34:58;99138.00;;;9.80
21210;BMP180;10762;42.206;25.326;2023-12-07T02:37:27;99132.00;;;9.70
21210;BMP180;10762;42.206;25.326;2023-12-07T02:39:55;99131.00;;;9.70
21210;BMP180;10762;42.206;25.326;2023-12-07T02:42:23;99137.00;;;9.70
21210;BMP180;10762;42.206;25.326;2023-12-07T02:44:52;99134.00;;;9.70
21210;BMP180;10762;42.206;25.326;2023-12-07T02:47:18;99140.00;;;9.60
21210;BMP180;10762;42.206;25.326;2023-12-07T02:49:47;99137.00;;;9.60
21210;BMP180;10762;42.206;25.326;2023-12-07T02:52:14;99138.00;;;9.60
21210;BMP180;10762;42.206;25.326;2023-12-07T02:54:42;99127.00;;;9.60
21210;BMP180;10762;42.206;25.326;2023-12-07T02:57:08;99131.00;;;9.60
21210;BMP180;10762;42.206;25.326;2023-12-07T02:59:35;99131.00;;;9.60
21210;BMP180;10762;42.206;25.326;2023-12-07T03:02:03;99123.00;;;9.70
21210;BMP180;10762;42.206;25.326;2023-12-07T03:04:29;99131.00;;;9.70
21210;BMP180;10762;42.206;25.326;2023-12-07T03:06:56;99132.00;;;9.80
21210;BMP180;10762;42.206;25.326;2023-12-07T03:09:23;99126.00;;;9.80
21210;BMP180;10762;42.206;25.326;2023-12-07T03:11:50;99131.00;;;9.90
21210;BMP180;10762;42.206;25.326;2023-12-07T03:14:16;99127.00;;;9.90
21210;BMP180;10762;42.206;25.326;2023-12-07T03:16:45;99138.00;;;9.90
21210;BMP180;10762;42.206;25.326;2023-12-07T03:19:12;99139.00;;;9.90
21210;BMP180;10762;42.206;25.326;2023-12-07T03:21:40;99135.00;;;9.90
21210;BMP180;10762;42.206;25.326;2023-12-07T03:24:09;99136.00;;;9.90
21210;BMP180;10762;42.206;25.326;2023-12-07T03:26:37;99131.00;;;9.90
21210;BMP180;10762;42.206;25.326;2023-12-07T03:29:03;99131.00;;;9.90
21210;BMP180;10762;42.206;25.326;2023-12-07T03:31:30;99126.00;;;9.80
21210;BMP180;10762;42.206;25.326;2023-12-07T03:33:57;99123.00;;;9.80
21210;BMP180;10762;42.206;25.326;2023-12-07T03:36:25;99123.00;;;9.80
21210;BMP180;10762;42.206;25.326;2023-12-07T03:38:51;99121.00;;;9.70
21210;BMP180;10762;42.206;25.326;2023-12-07T03:41:19;99124.00;;;9.70
21210;BMP180;10762;42.206;25.326;2023-12-07T03:43:45;99117.00;;;9.70
21210;BMP180;10762;42.206;25.326;2023-12-07T03:46:15;99127.00;;;9.70
21210;BMP180;10762;42.206;25.326;2023-12-07T03:48:43;99129.00;;;9.70
21210;BMP180;10762;42.206;25.326;2023-12-07T03:51:12;99133.00;;;9.70
21210;BMP180;10762;42.206;25.326;2023-12-07T03:53:39;99133.00;;;9.70
21210;BMP180;10762;42.206;25.326;2023-12-07T03:56:06;99132.00;;;9.70
21210;BMP180;10762;42.206;25.326;2023-12-07T03:58:33;99125.00;;;9.70
21210;BMP180;10762;42.206;25.326;2023-12-07T04:01:00;99131.00;;;9.70
21210;BMP180;10762;42.206;25.326;2023-12-07T04:03:29;99124.00;;;9.70
21210;BMP180;10762;42.206;25.326;2023-12-07T04:05:56;99118.00;;;9.60
21210;BMP180;10762;42.206;25.326;2023-12-07T04:08:23;99125.00;;;9.60
21210;BMP180;10762;42.206;25.326;2023-12-07T04:10:50;99130.00;;;9.60
21210;BMP180;10762;42.206;25.326;2023-12-07T04:13:17;99129.00;;;9.60
21210;BMP180;10762;42.206;25.326;2023-12-07T04:15:44;99128.00;;;9.50
21210;BMP180;10762;42.206;25.326;2023-12-07T04:18:12;99118.00;;;9.50
21210;BMP180;10762;42.206;25.326;2023-12-07T04:20:38;99124.00;;;9.40
21210;BMP180;10762;42.206;25.326;2023-12-07T04:23:04;99128.00;;;9.40
21210;BMP180;10762;42.206;25.326;2023-12-07T04:25:30;99127.00;;;9.30
21210;BMP180;10762;42.206;25.326;2023-12-07T04:27:58;99138.00;;;9.30
21210;BMP180;10762;42.206;25.326;2023-12-07T04:30:24;99137.00;;;9.30
21210;BMP180;10762;42.206;25.326;2023-12-07T04:32:52;99127.00;;;9.30
21210;BMP180;10762;42.206;25.326;2023-12-07T04:35:19;99126.00;;;9.30
21210;BMP180;10762;42.206;25.326;2023-12-07T04:37:47;99130.00;;;9.30
21210;BMP180;10762;42.206;25.326;2023-12-07T04:40:15;99138.00;;;9.30
21210;BMP180;10762;42.206;25.326;2023-12-07T04:42:43;99135.00;;;9.30
21210;BMP180;10762;42.206;25.326;2023-12-07T04:45:11;99139.00;;;9.30
21210;BMP180;10762;42.206;25.326;2023-12-07T04:47:37;99139.00;;;9.30
21210;BMP180;10762;42.206;25.326;2023-12-07T04:50:04;99143.00;;;9.30
21210;BMP180;10762;42.206;25.326;2023-12-07T04:52:33;99152.00;;;9.30
21210;BMP180;10762;42.206;25.326;2023-12-07T04:54:59;99147.00;;;9.30
21210;BMP180;10762;42.206;25.326;2023-12-07T04:57:27;99148.00;;;9.30
21210;BMP180;10762;42.206;25.326;2023-12-07T04:59:54;99142.00;;;9.30
21210;BMP180;10762;42.206;25.326;2023-12-07T05:02:21;99146.00;;;9.30
21210;BMP180;10762;42.206;25.326;2023-12-07T05:04:48;99147.00;;;9.20
21210;BMP180;10762;42.206;25.326;2023-12-07T05:07:15;99146.00;;;9.20
21210;BMP180;10762;42.206;25.326;2023-12-07T05:09:41;99152.00;;;9.20
21210;BMP180;10762;42.206;25.326;2023-12-07T05:12:09;99151.00;;;9.20
21210;BMP180;10762;42.206;25.326;2023-12-07T05:14:36;99156.00;;;9.20
21210;BMP180;10762;42.206;25.326;2023-12-07T05:17:03;99161.00;;;9.20
21210;BMP180;10762;42.206;25.326;2023-12-07T05:19:29;99163.00;;;9.20
21210;BMP180;10762;42.206;25.326;2023-12-07T05:21:57;99161.00;;;9.20
21210;BMP180;10762;42.206;25.326;2023-12-07T05:24:25;99157.00;;;9.20
21210;BMP180;10762;42.206;25.326;2023-12-07T05:26:51;99166.00;;;9.20
21210;BMP180;10762;42.206;25.326;2023-12-07T05:29:17;99162.00;;;9.20
21210;BMP180;10762;42.206;25.326;2023-12-07T05:31:45;99157.00;;;9.10
21210;BMP180;10762;42.206;25.326;2023-12-07T05:34:11;99167.00;;;9.10
21210;BMP180;10762;42.206;25.326;2023-12-07T05:36:38;99168.00;;;9.00
21210;BMP180;10762;42.206;25.326;2023-12-07T05:39:06;99164.00;;;8.90
21210;BMP180;10762;42.206;25.326;2023-12-07T05:41:34;99167.00;;;9.00
21210;BMP180;10762;42.206;25.326;2023-12-07T05:44:00;99170.00;;;9.00
21210;BMP180;10762;42.206;25.326;2023-12-07T05:46:27;99177.00;;;9.00
21210;BMP180;10762;42.206;25.326;2023-12-07T05:48:54;99180.00;;;9.00
21210;BMP180;10762;42.206;25.326;2023-12-07T05:51:22;99180.00;;;9.00
21210;BMP180;10762;42.206;25.326;2023-12-07T05:53:48;99185.00;;;9.00
21210;BMP180;10762;42.206;25.326;2023-12-07T05:56:19;99195.00;;;8.90
21210;BMP180;10762;42.206;25.326;2023-12-07T05:58:46;99198.00;;;8.90
21210;BMP180;10762;42.206;25.326;2023-12-07T06:01:16;99197.00;;;8.90
21210;BMP180;10762;42.206;25.326;2023-12-07T06:03:43;99212.00;;;9.00
21210;BMP180;10762;42.206;25.326;2023-12-07T06:06:13;99213.00;;;9.00
21210;BMP180;10762;42.206;25.326;2023-12-07T06:08:40;99213.00;;;9.00
21210;BMP180;10762;42.206;25.326;2023-12-07T06:11:07;99209.00;;;9.00
21210;BMP180;10762;42.206;25.326;2023-12-07T06:13:34;99210.00;;;9.00
21210;BMP180;10762;42.206;25.326;2023-12-07T06:16:01;99207.00;;;9.00
21210;BMP180;10762;42.206;25.326;2023-12-07T06:18:29;99220.00;;;9.00
21210;BMP180;10762;42.206;25.326;2023-12-07T06:20:57;99209.00;;;9.10
21210;BMP180;10762;42.206;25.326;2023-12-07T06:23:24;99218.00;;;9.10
21210;BMP180;10762;42.206;25.326;2023-12-07T06:25:51;99222.00;;;9.20
21210;BMP180;10762;42.206;25.326;2023-12-07T06:28:19;99212.00;;;9.30
21210;BMP180;10762;42.206;25.326;2023-12-07T06:30:45;99164.00;;;9.40
21210;BMP180;10762;42.206;25.326;2023-12-07T06:33:12;99216.00;;;9.50
21210;BMP180;10762;42.206;25.326;2023-12-07T06:35:39;99219.00;;;9.60
21210;BMP180;10762;42.206;25.326;2023-12-07T06:38:07;99211.00;;;9.70
21210;BMP180;10762;42.206;25.326;2023-12-07T06:40:35;99228.00;;;9.70
21210;BMP180;10762;42.206;25.326;2023-12-07T06:43:03;99229.00;;;9.80
21210;BMP180;10762;42.206;25.326;2023-12-07T06:45:30;99222.00;;;9.90
21210;BMP180;10762;42.206;25.326;2023-12-07T06:47:57;99227.00;;;9.90
21210;BMP180;10762;42.206;25.326;2023-12-07T06:50:24;99221.00;;;10.00
21210;BMP180;10762;42.206;25.326;2023-12-07T06:52:50;99220.00;;;10.10
21210;BMP180;10762;42.206;25.326;2023-12-07T06:55:17;99226.00;;;10.20
21210;BMP180;10762;42.206;25.326;2023-12-07T06:57:45;99231.00;;;10.30
21210;BMP180;10762;42.206;25.326;2023-12-07T07:00:13;99227.00;;;10.40
21210;BMP180;10762;42.206;25.326;2023-12-07T07:02:43;99231.00;;;10.40
21210;BMP180;10762;42.206;25.326;2023-12-07T07:05:10;99238.00;;;10.50
21210;BMP180;10762;42.206;25.326;2023-12-07T07:07:37;99230.00;;;10.60
21210;BMP180;10762;42.206;25.326;2023-12-07T07:10:04;99229.00;;;10.60
21210;BMP180;10762;42.206;25.326;2023-12-07T07:12:31;99225.00;;;10.70
21210;BMP180;10762;42.206;25.326;2023-12-07T07:14:57;99229.00;;;10.80
21210;BMP180;10762;42.206;25.326;2023-12-07T07:17:25;99225.00;;;10.90
21210;BMP180;10762;42.206;25.326;2023-12-07T07:19:55;99233.00;;;11.00
21210;BMP180;10762;42.206;25.326;2023-12-07T07:22:21;99228.00;;;11.20
21210;BMP180;10762;42.206;25.326;2023-12-07T07:24:47;99229.00;;;11.40
21210;BMP180;10762;42.206;25.326;2023-12-07T07:27:13;99232.00;;;11.50
21210;BMP180;10762;42.206;25.326;2023-12-07T07:29:39;99235.00;;;11.60
21210;BMP180;10762;42.206;25.326;2023-12-07T07:32:06;99235.00;;;11.70
21210;BMP180;10762;42.206;25.326;2023-12-07T07:34:32;99231.00;;;11.80
21210;BMP180;10762;42.206;25.326;2023-12-07T07:36:58;99239.00;;;11.90
21210;BMP180;10762;42.206;25.326;2023-12-07T07:39:24;99230.00;;;12.00
21210;BMP180;10762;42.206;25.326;2023-12-07T07:41:50;99231.00;;;12.10
21210;BMP180;10762;42.206;25.326;2023-12-07T07:44:16;99235.00;;;12.20
21210;BMP180;10762;42.206;25.326;2023-12-07T07:46:42;99240.00;;;12.30
21210;BMP180;10762;42.206;25.326;2023-12-07T07:49:09;99237.00;;;12.40
21210;BMP180;10762;42.206;25.326;2023-12-07T07:51:35;99246.00;;;12.40
21210;BMP180;10762;42.206;25.326;2023-12-07T07:54:01;99235.00;;;12.60
21210;BMP180;10762;42.206;25.326;2023-12-07T07:56:27;99235.00;;;12.70
21210;BMP180;10762;42.206;25.326;2023-12-07T07:58:53;99239.00;;;12.70
21210;BMP180;10762;42.206;25.326;2023-12-07T08:01:19;99239.00;;;12.70
21210;BMP180;10762;42.206;25.326;2023-12-07T08:03:45;99238.00;;;12.70
21210;BMP180;10762;42.206;25.326;2023-12-07T08:06:11;99241.00;;;12.80
21210;BMP180;10762;42.206;25.326;2023-12-07T08:08:37;99240.00;;;12.90
21210;BMP180;10762;42.206;25.326;2023-12-07T08:11:03;99237.00;;;13.00
21210;BMP180;10762;42.206;25.326;2023-12-07T08:13:31;99242.00;;;13.10
21210;BMP180;10762;42.206;25.326;2023-12-07T08:15:57;99240.00;;;13.20
21210;BMP180;10762;42.206;25.326;2023-12-07T08:18:23;99254.00;;;13.30
21210;BMP180;10762;42.206;25.326;2023-12-07T08:20:49;99257.00;;;13.40
21210;BMP180;10762;42.206;25.326;2023-12-07T08:23:15;99256.00;;;13.50
21210;BMP180;10762;42.206;25.326;2023-12-07T08:25:41;99257.00;;;13.60
21210;BMP180;10762;42.206;25.326;2023-12-07T08:28:09;99265.00;;;13.60
21210;BMP180;10762;42.206;25.326;2023-12-07T08:30:35;99262.00;;;13.70
21210;BMP180;10762;42.206;25.326;2023-12-07T08:33:02;99275.00;;;13.70
21210;BMP180;10762;42.206;25.326;2023-12-07T08:35:29;99271.00;;;13.70
21210;BMP180;10762;42.206;25.326;2023-12-07T08:37:59;99283.00;;;13.60
21210;BMP180;10762;42.206;25.326;2023-12-07T08:40:26;99273.00;;;13.70
21210;BMP180;10762;42.206;25.326;2023-12-07T08:42:54;99278.00;;;13.70
21210;BMP180;10762;42.206;25.326;2023-12-07T08:45:22;99275.00;;;13.60
21210;BMP180;10762;42.206;25.326;2023-12-07T08:47:49;99277.00;;;13.60
21210;BMP180;10762;42.206;25.326;2023-12-07T08:50:17;99280.00;;;13.60
21210;BMP180;10762;42.206;25.326;2023-12-07T08:52:46;99283.00;;;13.70
21210;BMP180;10762;42.206;25.326;2023-12-07T08:55:13;99282.00;;;13.90
21210;BMP180;10762;42.206;25.326;2023-12-07T08:57:41;99271.00;;;14.00
21210;BMP180;10762;42.206;25.326;2023-12-07T09:00:08;99265.00;;;14.00
21210;BMP180;10762;42.206;25.326;2023-12-07T09:02:38;99275.00;;;14.10
21210;BMP180;10762;42.206;25.326;2023-12-07T09:05:08;99270.00;;;14.20
21210;BMP180;10762;42.206;25.326;2023-12-07T09:07:35;99272.00;;;14.20
21210;BMP180;10762;42.206;25.326;2023-12-07T09:10:03;99268.00;;;14.20
21210;BMP180;10762;42.206;25.326;2023-12-07T09:12:31;99266.00;;;14.20
21210;BMP180;10762;42.206;25.326;2023-12-07T09:15:04;99257.00;;;14.30
21210;BMP180;10762;42.206;25.326;2023-12-07T09:17:31;99253.00;;;14.40
21210;BMP180;10762;42.206;25.326;2023-12-07T09:19:58;99255.00;;;14.50
21210;BMP180;10762;42.206;25.326;2023-12-07T09:22:25;99252.00;;;14.70
21210;BMP180;10762;42.206;25.326;2023-12-07T09:24:53;99257.00;;;14.70
21210;BMP180;10762;42.206;25.326;2023-12-07T09:27:22;99255.00;;;14.80
21210;BMP180;10762;42.206;25.326;2023-12-07T09:29:51;99253.00;;;14.80
21210;BMP180;10762;42.206;25.326;2023-12-07T09:32:18;99247.00;;;14.80
21210;BMP180;10762;42.206;25.326;2023-12-07T09:34:45;99256.00;;;14.90
21210;BMP180;10762;42.206;25.326;2023-12-07T09:37:14;99241.00;;;15.00
21210;BMP180;10762;42.206;25.326;2023-12-07T09:39:42;99250.00;;;15.00
21210;BMP180;10762;42.206;25.326;2023-12-07T09:42:15;99246.00;;;15.00
21210;BMP180;10762;42.206;25.326;2023-12-07T09:44:45;99241.00;;;14.90
21210;BMP180;10762;42.206;25.326;2023-12-07T09:47:12;99238.00;;;15.00
21210;BMP180;10762;42.206;25.326;2023-12-07T09:49:41;99236.00;;;15.00
21210;BMP180;10762;42.206;25.326;2023-12-07T09:52:11;99235.00;;;15.00
21210;BMP180;10762;42.206;25.326;2023-12-07T09:54:42;99240.00;;;15.00
21210;BMP180;10762;42.206;25.326;2023-12-07T09:57:09;99236.00;;;15.10
21210;BMP180;10762;42.206;25.326;2023-12-07T09:59:39;99236.00;;;15.20
21210;BMP180;10762;42.206;25.326;2023-12-07T10:02:08;99234.00;;;15.20
21210;BMP180;10762;42.206;25.326;2023-12-07T10:04:37;99234.00;;;15.20
21210;BMP180;10762;42.206;25.326;2023-12-07T10:07:06;99228.00;;;15.20
21210;BMP180;10762;42.206;25.326;2023-12-07T10:09:40;99224.00;;;15.20
21210;BMP180;10762;42.206;25.326;2023-12-07T10:12:07;99226.00;;;15.30
21210;BMP180;10762;42.206;25.326;2023-12-07T10:14:33;99230.00;;;15.30
21210;BMP180;10762;42.206;25.326;2023-12-07T10:17:00;99227.00;;;15.30
21210;BMP180;10762;42.206;25.326;2023-12-07T10:19:30;99228.00;;;15.20
21210;BMP180;10762;42.206;25.326;2023-12-07T10:21:57;99222.00;;;15.30
21210;BMP180;10762;42.206;25.326;2023-12-07T10:24:26;99214.00;;;15.20
21210;BMP180;10762;42.206;25.326;2023-12-07T10:26:54;99213.00;;;15.30
21210;BMP180;10762;42.206;25.326;2023-12-07T10:29:22;99218.00;;;15.30
21210;BMP180;10762;42.206;25.326;2023-12-07T10:31:49;99215.00;;;15.50
21210;BMP180;10762;42.206;25.326;2023-12-07T10:34:20;99217.00;;;15.60
21210;BMP180;10762;42.206;25.326;2023-12-07T10:36:48;99214.00;;;15.60
21210;BMP180;10762;42.206;25.326;2023-12-07T10:39:18;99211.00;;;15.60
21210;BMP180;10762;42.206;25.326;2023-12-07T10:41:47;99207.00;;;15.60
21210;BMP180;10762;42.206;25.326;2023-12-07T10:44:14;99209.00;;;15.70
21210;BMP180;10762;42.206;25.326;2023-12-07T10:46:43;99212.00;;;15.80
21210;BMP180;10762;42.206;25.326;2023-12-07T10:49:14;99206.00;;;15.80
21210;BMP180;10762;42.206;25.326;2023-12-07T10:51:45;99201.00;;;15.80
21210;BMP180;10762;42.206;25.326;2023-12-07T10:54:14;99208.00;;;15.80
21210;BMP180;10762;42.206;25.326;2023-12-07T10:59:10;99199.00;;;16.00
21210;BMP180;10762;42.206;25.326;2023-12-07T11:01:39;99200.00;;;16.00
21210;BMP180;10762;42.206;25.326;2023-12-07T11:04:11;99197.00;;;16.00
21210;BMP180;10762;42.206;25.326;2023-12-07T11:06:42;99192.00;;;16.00
21210;BMP180;10762;42.206;25.326;2023-12-07T11:09:16;99194.00;;;16.10
21210;BMP180;10762;42.206;25.326;2023-12-07T11:11:47;99193.00;;;16.20
21210;BMP180;10762;42.206;25.326;2023-12-07T11:14:15;99190.00;;;16.20
21210;BMP180;10762;42.206;25.326;2023-12-07T11:16:43;99189.00;;;16.20
21210;BMP180;10762;42.206;25.326;2023-12-07T11:22:10;99185.00;;;16.20
21210;BMP180;10762;42.206;25.326;2023-12-07T11:25:00;99184.00;;;16.20
21210;BMP180;10762;42.206;25.326;2023-12-07T11:27:29;99184.00;;;16.40
21210;BMP180;10762;42.206;25.326;2023-12-07T11:29:58;99183.00;;;16.50
21210;BMP180;10762;42.206;25.326;2023-12-07T11:32:26;99198.00;;;16.60
21210;BMP180;10762;42.206;25.326;2023-12-07T11:34:54;99180.00;;;16.50
21210;BMP180;10762;42.206;25.326;2023-12-07T11:37:21;99183.00;;;16.40
21210;BMP180;10762;42.206;25.326;2023-12-07T11:39:47;99172.00;;;16.40
21210;BMP180;10762;42.206;25.326;2023-12-07T11:42:15;99171.00;;;16.50
21210;BMP180;10762;42.206;25.326;2023-12-07T11:44:47;99166.00;;;16.50
21210;BMP180;10762;42.206;25.326;2023-12-07T11:47:15;99168.00;;;16.60
21210;BMP180;10762;42.206;25.326;2023-12-07T11:49:43;99164.00;;;16.60
21210;BMP180;10762;42.206;25.326;2023-12-07T11:52:16;99165.00;;;16.70
21210;BMP180;10762;42.206;25.326;2023-12-07T11:54:43;99169.00;;;16.60
21210;BMP180;10762;42.206;25.326;2023-12-07T11:57:10;99160.00;;;16.60
21210;BMP180;10762;42.206;25.326;2023-12-07T11:59:40;99165.00;;;16.50
21210;BMP180;10762;42.206;25.326;2023-12-07T12:02:12;99162.00;;;16.60
21210;BMP180;10762;42.206;25.326;2023-12-07T12:04:40;99162.00;;;16.70
21210;BMP180;10762;42.206;25.326;2023-12-07T12:07:06;99159.00;;;16.70
21210;BMP180;10762;42.206;25.326;2023-12-07T12:09:33;99156.00;;;16.80
21210;BMP180;10762;42.206;25.326;2023-12-07T12:12:00;99154.00;;;16.90
21210;BMP180;10762;42.206;25.326;2023-12-07T12:14:28;99158.00;;;16.90
21210;BMP180;10762;42.206;25.326;2023-12-07T12:16:56;99097.00;;;16.90
21210;BMP180;10762;42.206;25.326;2023-12-07T12:19:24;99159.00;;;16.90
21210;BMP180;10762;42.206;25.326;2023-12-07T12:21:54;99159.00;;;16.80
21210;BMP180;10762;42.206;25.326;2023-12-07T12:24:20;99161.00;;;16.80
21210;BMP180;10762;42.206;25.326;2023-12-07T12:26:46;99154.00;;;16.90
21210;BMP180;10762;42.206;25.326;2023-12-07T12:29:15;99147.00;;;16.90
21210;BMP180;10762;42.206;25.326;2023-12-07T12:31:44;99150.00;;;16.80
21210;BMP180;10762;42.206;25.326;2023-12-07T12:34:11;99149.00;;;16.80
21210;BMP180;10762;42.206;25.326;2023-12-07T12:36:40;99145.00;;;16.80
21210;BMP180;10762;42.206;25.326;2023-12-07T12:39:07;99148.00;;;16.70
21210;BMP180;10762;42.206;25.326;2023-12-07T12:41:36;99157.00;;;16.60
21210;BMP180;10762;42.206;25.326;2023-12-07T12:44:05;99149.00;;;16.60
21210;BMP180;10762;42.206;25.326;2023-12-07T12:46:33;99153.00;;;16.60
21210;BMP180;10762;42.206;25.326;2023-12-07T12:49:01;99149.00;;;16.50
21210;BMP180;10762;42.206;25.326;2023-12-07T12:51:29;99154.00;;;16.50
21210;BMP180;10762;42.206;25.326;2023-12-07T12:54:00;99155.00;;;16.40
21210;BMP180;10762;42.206;25.326;2023-12-07T12:56:27;99149.00;;;16.40
21210;BMP180;10762;42.206;25.326;2023-12-07T12:58:54;99149.00;;;16.40
21210;BMP180;10762;42.206;25.326;2023-12-07T13:01:24;99151.00;;;16.40
21210;BMP180;10762;42.206;25.326;2023-12-07T13:03:52;99154.00;;;16.40
21210;BMP180;10762;42.206;25.326;2023-12-07T13:06:19;99153.00;;;16.40
21210;BMP180;10762;42.206;25.326;2023-12-07T13:08:47;99146.00;;;16.30
21210;BMP180;10762;42.206;25.326;2023-12-07T13:11:20;99146.00;;;16.30
21210;BMP180;10762;42.206;25.326;2023-12-07T13:13:47;99154.00;;;16.20
21210;BMP180;10762;42.206;25.326;2023-12-07T13:16:15;99159.00;;;16.20
21210;BMP180;10762;42.206;25.326;2023-12-07T13:18:44;99157.00;;;16.10
21210;BMP180;10762;42.206;25.326;2023-12-07T13:21:12;99156.00;;;16.10
21210;BMP180;10762;42.206;25.326;2023-12-07T13:23:41;99161.00;;;16.00
21210;BMP180;10762;42.206;25.326;2023-12-07T13:26:10;99165.00;;;15.90
21210;BMP180;10762;42.206;25.326;2023-12-07T13:28:38;99167.00;;;15.90
21210;BMP180;10762;42.206;25.326;2023-12-07T13:31:04;99169.00;;;15.90
21210;BMP180;10762;42.206;25.326;2023-12-07T13:33:31;99175.00;;;15.80
21210;BMP180;10762;42.206;25.326;2023-12-07T13:35:59;99173.00;;;15.80
21210;BMP180;10762;42.206;25.326;2023-12-07T13:38:27;99182.00;;;15.80
21210;BMP180;10762;42.206;25.326;2023-12-07T13:40:56;99180.00;;;15.70
21210;BMP180;10762;42.206;25.326;2023-12-07T13:43:25;99185.00;;;15.70
21210;BMP180;10762;42.206;25.326;2023-12-07T13:45:53;99186.00;;;15.70
21210;BMP180;10762;42.206;25.326;2023-12-07T13:48:20;99186.00;;;15.70
21210;BMP180;10762;42.206;25.326;2023-12-07T13:50:47;99179.00;;;15.70
21210;BMP180;10762;42.206;25.326;2023-12-07T13:53:15;99183.00;;;15.70
21210;BMP180;10762;42.206;25.326;2023-12-07T13:55:42;99188.00;;;15.70
21210;BMP180;10762;42.206;25.326;2023-12-07T13:58:09;99185.00;;;15.70
21210;BMP180;10762;42.206;25.326;2023-12-07T14:00:39;99198.00;;;15.70
21210;BMP180;10762;42.206;25.326;2023-12-07T14:03:11;99199.00;;;15.60
21210;BMP180;10762;42.206;25.326;2023-12-07T14:05:38;99200.00;;;15.60
21210;BMP180;10762;42.206;25.326;2023-12-07T14:08:05;99200.00;;;15.60
21210;BMP180;10762;42.206;25.326;2023-12-07T14:10:32;99197.00;;;15.50
21210;BMP180;10762;42.206;25.326;2023-12-07T14:13:00;99199.00;;;15.40